Canefield Airport

Partly cloudy with adjacent showers
31oC (88oF)

Partly cloudy with adjacent showers


Winds: Westerly @ 03kts / 06km/h

Humidity: 76%

Barometric Pressure: 1009 mb

Accumulated Rainfall for November: 68.2 mm

Updated: 11:00 local time (15:00 UTC)

Douglas-Charles Airport

Partly cloudy
30oC (86oF)

Partly cloudy


Winds: East south easterly @ 06kts / 11km/h

Humidity: 74%

Barometric Pressure: 1010 mb

Accumulated Rainfall for November: 142.8 mm

Updated: 11:00 local time (15:00 UTC)

Satellite Imagery

Satellite Imagery
Click image for larger view. (Source: National Hurricane Center).

Aviation Routine Report (METAR)

Douglas-Charles: METAR TDPD 171500Z 11006KT 9999 SCT019 30/24 Q1010=
Canefield: METAR TDCF 171500Z 27003KT 9999 SCT018 31/26 Q1009=